createdAt,value
2022-11-25T00:01:39.311Z,9.25
2022-11-25T00:04:06.402Z,7.47
2022-11-25T00:06:36.018Z,8.35
2022-11-25T00:09:04.830Z,7.60
2022-11-25T00:11:35.383Z,6.93
2022-11-25T00:14:02.482Z,7.50
2022-11-25T00:16:29.613Z,9.32
2022-11-25T00:18:58.564Z,8.55
2022-11-25T00:21:29.358Z,6.10
2022-11-25T00:24:06.114Z,6.95
2022-11-25T00:26:36.204Z,10.48
2022-11-25T00:29:06.637Z,10.85
2022-11-25T00:31:36.856Z,11.15
2022-11-25T00:34:04.535Z,8.25
2022-11-25T00:36:37.869Z,11.38
2022-11-25T00:39:11.244Z,8.35
2022-11-25T00:42:04.545Z,8.70
2022-11-25T00:44:39.615Z,7.53
2022-11-25T00:47:13.946Z,7.20
2022-11-25T00:49:44.671Z,7.78
2022-11-25T00:52:22.076Z,8.50
2022-11-25T00:54:50.116Z,9.95
2022-11-25T00:57:23.442Z,8.05
2022-11-25T00:59:51.062Z,6.78
2022-11-25T01:02:19.334Z,7.88
2022-11-25T01:04:47.577Z,9.52
2022-11-25T01:07:15.772Z,6.15
2022-11-25T01:09:43.175Z,10.77
2022-11-25T01:12:10.224Z,10.55
2022-11-25T01:14:37.679Z,10.82
2022-11-25T01:17:05.184Z,10.65
2022-11-25T01:19:32.187Z,8.10
2022-11-25T01:21:59.232Z,9.13
2022-11-25T01:24:26.587Z,8.45
2022-11-25T01:26:55.926Z,10.80
2022-11-25T01:29:23.157Z,8.43
2022-11-25T01:31:50.563Z,8.93
2022-11-25T01:34:22.992Z,11.35
2022-11-25T01:36:50.432Z,9.57
2022-11-25T01:39:27.029Z,7.10
2022-11-25T01:41:59.112Z,6.72
2022-11-25T01:44:31.613Z,7.57
2022-11-25T01:47:23.540Z,8.55
2022-11-25T01:50:02.958Z,7.15
2022-11-25T01:52:36.676Z,8.95
2022-11-25T01:55:10.791Z,7.78
2022-11-25T01:57:40.559Z,7.85
2022-11-25T02:00:09.404Z,5.80
2022-11-25T02:02:36.904Z,7.75
2022-11-25T02:05:10.267Z,6.95
2022-11-25T02:07:43.422Z,7.93
2022-11-25T02:10:25.495Z,7.10
2022-11-25T02:12:53.334Z,8.95
2022-11-25T02:15:22.115Z,10.50
2022-11-25T02:17:49.977Z,13.23
2022-11-25T02:20:23.401Z,9.32
2022-11-25T02:23:55.668Z,6.43
2022-11-25T02:26:23.324Z,6.68
2022-11-25T02:28:51.258Z,7.60
2022-11-25T02:31:23.381Z,7.68
2022-11-25T02:33:50.689Z,10.45
2022-11-25T02:36:23.137Z,7.75
2022-11-25T02:39:03.324Z,8.15
2022-11-25T02:41:55.819Z,9.80
2022-11-25T02:44:22.877Z,11.27
2022-11-25T02:46:49.991Z,8.43
2022-11-25T02:49:17.079Z,6.13
2022-11-25T02:51:45.602Z,5.75
2022-11-25T02:54:16.854Z,7.07
2022-11-25T02:56:44.462Z,7.47
2022-11-25T02:59:12.271Z,10.18
2022-11-25T03:01:39.614Z,13.73
2022-11-25T03:04:07.474Z,11.18
2022-11-25T03:06:34.904Z,5.72
2022-11-25T03:09:02.113Z,8.68
2022-11-25T03:11:48.020Z,8.50
2022-11-25T03:14:15.077Z,8.30
2022-11-25T03:16:42.280Z,7.97
2022-11-25T03:19:09.365Z,7.43
2022-11-25T03:21:36.733Z,8.07
2022-11-25T03:24:03.956Z,12.40
2022-11-25T03:26:31.345Z,8.60
2022-11-25T03:28:58.417Z,13.43
2022-11-25T03:31:25.503Z,5.85
2022-11-25T03:33:52.555Z,6.53
2022-11-25T03:36:20.831Z,4.68
2022-11-25T03:38:47.884Z,7.55
2022-11-25T03:41:14.898Z,8.32
2022-11-25T03:43:42.083Z,6.07
2022-11-25T03:46:09.152Z,6.07
2022-11-25T03:48:36.509Z,6.07
2022-11-25T03:51:03.683Z,8.05
2022-11-25T03:53:30.735Z,4.63
2022-11-25T03:55:57.814Z,6.68
2022-11-25T03:58:24.862Z,4.80
2022-11-25T04:00:52.000Z,8.05
2022-11-25T04:03:19.102Z,8.93
2022-11-25T04:05:46.219Z,6.38
2022-11-25T04:08:13.800Z,4.60
2022-11-25T04:10:40.817Z,8.30
2022-11-25T04:13:07.908Z,7.78
2022-11-25T04:15:35.030Z,5.22
2022-11-25T04:18:02.081Z,6.88
2022-11-25T04:20:29.235Z,8.07
2022-11-25T04:22:56.295Z,10.75
2022-11-25T04:25:23.327Z,10.18
2022-11-25T04:27:50.445Z,7.00
2022-11-25T04:30:17.759Z,7.15
2022-11-25T04:32:44.785Z,6.00
2022-11-25T04:35:11.848Z,3.70
2022-11-25T04:37:38.860Z,5.22
2022-11-25T04:40:07.031Z,6.63
2022-11-25T04:42:37.911Z,6.65
2022-11-25T04:45:23.106Z,8.93
2022-11-25T04:47:51.256Z,7.85
2022-11-25T04:50:22.803Z,6.88
2022-11-25T04:52:50.731Z,8.73
2022-11-25T04:55:17.938Z,10.60
2022-11-25T04:57:45.085Z,3.92
2022-11-25T05:00:12.891Z,8.70
2022-11-25T05:02:40.265Z,4.53
2022-11-25T05:05:08.107Z,6.50
2022-11-25T05:07:35.496Z,10.70
2022-11-25T05:10:02.767Z,4.57
2022-11-25T05:12:32.508Z,4.55
2022-11-25T05:14:59.585Z,7.15
2022-11-25T05:17:30.750Z,6.38
2022-11-25T05:19:58.436Z,4.80
2022-11-25T05:22:29.100Z,8.15
2022-11-25T05:24:57.754Z,7.95
2022-11-25T05:27:26.960Z,8.68
2022-11-25T05:29:56.137Z,8.98
2022-11-25T05:32:23.858Z,10.80
2022-11-25T05:34:50.931Z,4.63
2022-11-25T05:37:22.835Z,6.13
2022-11-25T05:39:51.653Z,7.88
2022-11-25T05:42:18.812Z,6.78
2022-11-25T05:44:45.902Z,7.50
2022-11-25T05:47:13.092Z,5.63
2022-11-25T05:49:40.159Z,8.45
2022-11-25T05:52:07.202Z,8.00
2022-11-25T05:54:34.605Z,10.65
2022-11-25T05:57:02.009Z,6.43
2022-11-25T05:59:29.146Z,8.15
2022-11-25T06:01:56.256Z,6.20
2022-11-25T06:04:23.341Z,8.65
2022-11-25T06:06:50.394Z,10.32
2022-11-25T06:09:17.440Z,11.05
2022-11-25T06:11:44.715Z,14.77
2022-11-25T06:14:11.746Z,15.38
2022-11-25T06:16:38.797Z,12.73
2022-11-25T06:19:06.972Z,16.13
2022-11-25T06:21:34.451Z,12.25
2022-11-25T06:24:01.778Z,11.13
2022-11-25T06:26:28.794Z,9.75
2022-11-25T06:28:56.765Z,9.03
2022-11-25T06:31:26.650Z,9.53
2022-11-25T06:33:54.755Z,10.13
2022-11-25T06:36:23.091Z,9.73
2022-11-25T06:38:54.654Z,8.43
2022-11-25T06:41:22.913Z,10.70
2022-11-25T06:43:50.555Z,12.37
2022-11-25T06:46:24.360Z,9.50
2022-11-25T06:48:53.971Z,11.37
2022-11-25T06:51:21.257Z,11.10
2022-11-25T06:53:48.442Z,12.90
2022-11-25T06:56:27.902Z,11.82
2022-11-25T06:58:55.793Z,15.87
2022-11-25T07:01:29.540Z,13.37
2022-11-25T07:04:03.335Z,13.07
2022-11-25T07:06:33.620Z,18.70
2022-11-25T07:09:01.661Z,21.48
2022-11-25T07:11:32.595Z,21.42
2022-11-25T07:14:06.974Z,23.40
2022-11-25T07:16:34.929Z,28.50
2022-11-25T07:19:03.061Z,24.27
2022-11-25T07:21:32.457Z,24.07
2022-11-25T07:24:03.033Z,23.53
2022-11-25T07:26:34.124Z,22.73
2022-11-25T07:29:18.251Z,27.43
2022-11-25T07:31:53.532Z,21.23
2022-11-25T07:34:21.582Z,26.43
2022-11-25T07:36:50.510Z,25.80
2022-11-25T07:39:21.335Z,20.90
2022-11-25T07:41:55.100Z,19.60
2022-11-25T07:44:22.557Z,15.40
2022-11-25T07:46:51.149Z,30.20
2022-11-25T07:49:22.792Z,31.57
2022-11-25T07:51:57.684Z,30.02
2022-11-25T07:54:25.313Z,36.60
2022-11-25T07:56:52.469Z,23.67
2022-11-25T07:59:22.906Z,25.88
2022-11-25T08:01:55.047Z,22.85
2022-11-25T08:04:23.345Z,24.70
2022-11-25T08:06:52.433Z,29.95
2022-11-25T08:09:23.639Z,33.70
2022-11-25T08:11:51.564Z,27.45
2022-11-25T08:14:19.032Z,21.00
2022-11-25T08:16:46.495Z,22.80
2022-11-25T08:19:17.323Z,23.20
2022-11-25T08:21:45.112Z,20.55
2022-11-25T08:24:21.418Z,19.25
2022-11-25T08:26:49.161Z,25.70
2022-11-25T08:29:18.886Z,30.00
2022-11-25T08:31:46.191Z,28.23
2022-11-25T08:34:23.491Z,27.45
2022-11-25T08:36:51.961Z,23.50
2022-11-25T08:39:51.711Z,22.75
2022-11-25T08:42:08.491Z,31.52
2022-11-25T08:44:36.424Z,27.00
2022-11-25T08:47:03.545Z,28.92
2022-11-25T08:49:32.784Z,24.00
2022-11-25T08:52:03.469Z,21.70
2022-11-25T08:54:30.766Z,24.23
2022-11-25T08:56:58.185Z,24.83
2022-11-25T08:59:25.316Z,22.50
2022-11-25T09:01:52.567Z,16.13
2022-11-25T09:04:19.659Z,16.67
2022-11-25T09:06:47.001Z,22.13
2022-11-25T09:09:14.320Z,21.67
2022-11-25T09:11:42.427Z,22.88
2022-11-25T09:14:09.720Z,17.60
2022-11-25T09:16:36.966Z,21.23
2022-11-25T09:19:04.371Z,30.88
2022-11-25T09:21:31.541Z,29.67
2022-11-25T09:23:58.770Z,22.98
2022-11-25T09:26:35.607Z,17.00
2022-11-25T09:29:03.246Z,24.15
2022-11-25T09:31:30.450Z,18.40
2022-11-25T09:33:58.011Z,17.83
2022-11-25T09:36:25.142Z,31.42
2022-11-25T09:38:52.311Z,23.23
2022-11-25T09:42:14.975Z,18.60
2022-11-25T09:45:22.296Z,22.35
2022-11-25T09:48:21.776Z,25.38
2022-11-25T09:51:11.821Z,23.23
2022-11-25T09:54:16.266Z,21.40
2022-11-25T09:56:51.545Z,25.70
2022-11-25T09:59:46.719Z,28.17
2022-11-25T10:02:51.249Z,22.00
2022-11-25T10:05:28.884Z,20.10
2022-11-25T10:08:11.465Z,28.05
2022-11-25T10:10:48.610Z,23.33
2022-11-25T10:13:48.517Z,19.48
2022-11-25T10:16:51.932Z,17.20
2022-11-25T10:19:37.494Z,21.50
2022-11-25T10:22:45.309Z,23.33
2022-11-25T10:25:21.284Z,17.38
2022-11-25T10:28:18.926Z,22.00
2022-11-25T10:31:03.454Z,23.15
2022-11-25T10:33:59.523Z,23.55
2022-11-25T10:36:41.457Z,25.13
2022-11-25T10:39:14.826Z,24.90
2022-11-25T10:41:55.981Z,19.60
2022-11-25T10:44:27.666Z,24.73
2022-11-25T10:47:16.225Z,20.10
2022-11-25T10:49:46.275Z,26.50
2022-11-25T10:52:14.659Z,22.52
2022-11-25T10:54:42.128Z,16.83
2022-11-25T10:57:21.341Z,14.13
2022-11-25T10:59:58.989Z,14.02
2022-11-25T11:02:39.705Z,14.43
2022-11-25T11:05:09.500Z,15.95
2022-11-25T11:07:42.567Z,15.68
2022-11-25T11:10:20.164Z,18.63
2022-11-25T11:13:06.831Z,19.00
2022-11-25T11:15:47.468Z,16.58
2022-11-25T11:18:37.212Z,17.73
2022-11-25T11:21:08.113Z,14.70
2022-11-25T11:23:50.673Z,18.30
2022-11-25T11:27:00.767Z,16.42
2022-11-25T11:29:27.880Z,10.10
2022-11-25T11:32:04.741Z,14.43
2022-11-25T11:35:03.802Z,21.17
2022-11-25T11:37:40.825Z,13.93
2022-11-25T11:40:46.555Z,11.30
2022-11-25T11:43:45.254Z,12.07
2022-11-25T11:46:24.412Z,14.50
2022-11-25T11:49:15.725Z,16.23
2022-11-25T11:52:00.673Z,10.70
2022-11-25T11:54:36.624Z,14.05
2022-11-25T11:57:56.346Z,12.27
2022-11-25T12:00:23.751Z,9.45
2022-11-25T12:03:05.668Z,8.18
2022-11-25T12:05:37.231Z,10.10
2022-11-25T12:08:29.918Z,9.45
2022-11-25T12:11:03.715Z,9.48
2022-11-25T12:13:51.190Z,7.90
2022-11-25T12:16:36.461Z,7.70
2022-11-25T12:19:15.081Z,10.33
2022-11-25T12:21:54.988Z,11.80
2022-11-25T12:24:23.681Z,6.50
2022-11-25T12:27:08.646Z,9.35
2022-11-25T12:29:45.585Z,6.65
2022-11-25T12:32:53.024Z,9.55
2022-11-25T12:35:40.989Z,12.10
2022-11-25T12:38:45.953Z,7.57
2022-11-25T12:41:49.050Z,3.10
2022-11-25T12:44:26.110Z,9.18
2022-11-25T12:46:56.537Z,8.23
2022-11-25T12:49:29.022Z,6.80
2022-11-25T12:52:16.933Z,8.48
2022-11-25T12:55:27.970Z,6.65
2022-11-25T12:58:35.263Z,5.95
2022-11-25T13:04:21.278Z,8.27
2022-11-25T13:07:23.744Z,17.17
2022-11-25T13:09:53.564Z,9.07
2022-11-25T13:13:01.475Z,14.07
2022-11-25T13:15:44.148Z,4.35
2022-11-25T13:18:19.587Z,10.07
2022-11-25T13:20:55.641Z,5.00
2022-11-25T13:23:27.365Z,6.70
2022-11-25T13:26:29.262Z,6.53
2022-11-25T13:28:57.285Z,13.02
2022-11-25T13:31:35.216Z,4.57
2022-11-25T13:34:20.372Z,6.93
2022-11-25T13:36:58.971Z,4.68
2022-11-25T13:39:37.499Z,5.32
2022-11-25T13:42:26.634Z,10.70
2022-11-25T13:44:56.063Z,14.18
2022-11-25T13:47:35.246Z,6.78
2022-11-25T13:50:11.959Z,13.38
2022-11-25T13:52:47.278Z,8.13
2022-11-25T13:55:17.327Z,7.03
2022-11-25T13:58:01.183Z,7.50
2022-11-25T14:00:34.030Z,8.02
2022-11-25T14:03:19.378Z,7.00
2022-11-25T14:06:19.364Z,6.13
2022-11-25T14:09:25.776Z,5.72
2022-11-25T14:12:27.840Z,10.35
2022-11-25T14:15:45.878Z,8.25
2022-11-25T14:18:53.520Z,6.15
2022-11-25T14:21:52.926Z,11.73
2022-11-25T14:25:13.525Z,10.25
2022-11-25T14:27:51.996Z,8.65
2022-11-25T14:30:19.780Z,7.78
2022-11-25T14:33:12.718Z,9.45
2022-11-25T14:36:07.990Z,6.57
2022-11-25T14:38:53.917Z,9.98
2022-11-25T14:41:36.909Z,6.78
2022-11-25T14:44:15.935Z,8.35
2022-11-25T14:46:58.335Z,11.43
2022-11-25T14:49:49.223Z,6.80
2022-11-25T14:52:32.269Z,6.50
2022-11-25T14:55:01.111Z,12.18
2022-11-25T14:57:34.488Z,8.98
2022-11-25T15:00:12.134Z,6.90
2022-11-25T15:03:00.755Z,6.72
2022-11-25T15:05:34.600Z,8.18
2022-11-25T15:08:17.977Z,11.77
2022-11-25T15:10:50.126Z,7.63
2022-11-25T15:13:40.458Z,7.43
2022-11-25T15:16:25.106Z,20.80
2022-11-25T15:19:13.927Z,6.95
2022-11-25T15:22:07.526Z,12.98
2022-11-25T15:24:48.884Z,11.27
2022-11-25T15:27:29.054Z,10.55
2022-11-25T15:29:57.546Z,8.82
2022-11-25T15:32:31.905Z,20.63
2022-11-25T15:35:02.208Z,10.60
2022-11-25T15:37:29.737Z,8.70
2022-11-25T15:40:32.567Z,14.13
2022-11-25T15:43:02.648Z,19.38
2022-11-25T15:45:44.714Z,12.95
2022-11-25T15:48:27.446Z,16.13
2022-11-25T15:51:24.472Z,18.45
2022-11-25T15:54:01.805Z,20.40
2022-11-25T15:56:30.462Z,17.45
2022-11-25T15:59:01.730Z,18.33
2022-11-25T16:01:30.649Z,20.23
2022-11-25T16:04:33.153Z,18.80
2022-11-25T16:07:00.359Z,14.57
2022-11-25T16:09:31.354Z,17.30
2022-11-25T16:12:06.732Z,12.27
2022-11-25T16:14:37.055Z,16.30
2022-11-25T16:17:10.601Z,22.52
2022-11-25T16:19:45.735Z,19.45
2022-11-25T16:22:20.340Z,15.65
2022-11-25T16:24:52.367Z,17.65
2022-11-25T16:27:26.059Z,16.65
2022-11-25T16:30:17.575Z,19.88
2022-11-25T16:32:44.901Z,18.73
2022-11-25T16:35:23.758Z,19.98
2022-11-25T16:37:51.315Z,17.05
2022-11-25T16:40:19.339Z,20.48
2022-11-25T16:42:50.395Z,16.63
2022-11-25T16:45:25.269Z,19.30
2022-11-25T16:47:52.777Z,18.05
2022-11-25T16:50:21.712Z,21.60
2022-11-25T16:52:50.208Z,18.90
2022-11-25T16:55:18.781Z,17.63
2022-11-25T16:57:47.018Z,18.52
2022-11-25T17:00:19.222Z,20.65
2022-11-25T17:02:46.652Z,17.88
2022-11-25T17:05:26.155Z,22.23
2022-11-25T17:07:53.781Z,21.52
2022-11-25T17:10:21.828Z,17.77
2022-11-25T17:12:50.782Z,22.55
2022-11-25T17:15:35.966Z,15.85
2022-11-25T17:18:06.726Z,21.90
2022-11-25T17:20:34.980Z,21.83
2022-11-25T17:23:16.615Z,19.30
2022-11-25T17:25:50.222Z,19.58
2022-11-25T17:28:21.462Z,19.58
2022-11-25T17:30:49.074Z,20.73
2022-11-25T17:33:20.355Z,20.55
2022-11-25T17:35:47.494Z,22.17
2022-11-25T17:38:22.966Z,23.38
2022-11-25T17:40:50.738Z,20.65
2022-11-25T17:43:24.012Z,18.88
2022-11-25T17:45:51.797Z,19.05
2022-11-25T17:48:19.791Z,18.92
2022-11-25T17:50:48.344Z,23.55
2022-11-25T17:53:15.841Z,24.50
2022-11-25T17:55:43.582Z,23.67
2022-11-25T17:58:15.042Z,27.17
2022-11-25T18:00:44.000Z,23.63
2022-11-25T18:03:17.545Z,26.20
2022-11-25T18:05:46.406Z,24.95
2022-11-25T18:08:14.245Z,33.90
2022-11-25T18:10:43.300Z,28.00
2022-11-25T18:13:11.306Z,36.97
2022-11-25T18:15:42.143Z,31.58
2022-11-25T18:18:28.342Z,27.63
2022-11-25T18:23:23.811Z,32.75
2022-11-25T18:25:52.116Z,30.88
2022-11-25T18:28:29.198Z,28.10
2022-11-25T18:31:02.746Z,24.80
2022-11-25T18:33:32.762Z,30.75
2022-11-25T18:36:00.299Z,27.17
2022-11-25T18:38:28.204Z,28.88
2022-11-25T18:40:56.708Z,28.92
2022-11-25T18:43:26.855Z,24.30
2022-11-25T18:45:58.303Z,31.25
2022-11-25T18:48:27.498Z,28.90
2022-11-25T18:50:57.518Z,29.40
2022-11-25T18:53:26.077Z,35.10
2022-11-25T18:55:54.413Z,31.98
2022-11-25T18:58:29.926Z,31.38
2022-11-25T19:01:11.162Z,34.08
2022-11-25T19:03:39.335Z,34.40
2022-11-25T19:06:10.976Z,32.90
2022-11-25T19:08:38.909Z,34.88
2022-11-25T19:11:14.688Z,38.17
2022-11-25T19:16:20.380Z,36.40
2022-11-25T19:18:50.634Z,32.95
2022-11-25T19:21:21.696Z,37.35
2022-11-25T19:23:50.014Z,32.40
2022-11-25T19:26:46.733Z,33.17
2022-11-25T19:31:54.565Z,45.20
2022-11-25T19:34:36.791Z,35.97
2022-11-25T19:37:06.584Z,36.35
2022-11-25T19:39:38.125Z,31.90
2022-11-25T19:42:06.432Z,36.70
2022-11-25T19:44:36.231Z,34.70
2022-11-25T19:47:15.261Z,35.17
2022-11-25T19:49:44.370Z,34.50
2022-11-25T19:52:35.514Z,35.95
2022-11-25T19:55:23.509Z,41.30
2022-11-25T19:57:53.464Z,34.67
2022-11-25T20:00:23.895Z,39.50
2022-11-25T20:02:56.150Z,40.28
2022-11-25T20:05:37.231Z,37.97
2022-11-25T20:08:05.532Z,35.35
2022-11-25T20:10:33.880Z,37.60
2022-11-25T20:13:03.562Z,32.35
2022-11-25T20:15:31.542Z,37.65
2022-11-25T20:18:02.044Z,29.42
2022-11-25T20:20:34.575Z,36.40
2022-11-25T20:23:28.458Z,34.33
2022-11-25T20:25:58.346Z,34.25
2022-11-25T20:28:34.437Z,35.35
2022-11-25T20:31:02.604Z,32.20
2022-11-25T20:33:30.489Z,33.95
2022-11-25T20:36:06.635Z,35.15
2022-11-25T20:38:39.648Z,37.20
2022-11-25T20:41:07.855Z,38.35
2022-11-25T20:43:41.941Z,38.08
2022-11-25T20:46:31.008Z,37.58
2022-11-25T20:49:02.863Z,46.80
2022-11-25T20:51:30.867Z,40.05
2022-11-25T20:54:03.783Z,39.83
2022-11-25T20:56:31.537Z,43.83
2022-11-25T20:58:59.180Z,34.70
2022-11-25T21:01:29.187Z,38.30
2022-11-25T21:03:57.412Z,40.05
2022-11-25T21:06:30.693Z,37.10
2022-11-25T21:09:01.634Z,36.10
2022-11-25T21:11:33.245Z,37.33
2022-11-25T21:14:01.655Z,41.55
2022-11-25T21:16:30.022Z,33.78
2022-11-25T21:18:57.832Z,41.15
2022-11-25T21:21:34.756Z,34.47
2022-11-25T21:24:37.152Z,35.25
2022-11-25T21:27:14.087Z,40.78
2022-11-25T21:29:43.902Z,36.83
2022-11-25T21:32:24.306Z,41.42
2022-11-25T21:34:52.510Z,40.25
2022-11-25T21:37:44.473Z,41.20
2022-11-25T21:40:35.123Z,40.97
2022-11-25T21:43:05.293Z,38.30
2022-11-25T21:45:33.215Z,35.10
2022-11-25T21:48:00.365Z,36.63
2022-11-25T21:50:29.968Z,32.00
2022-11-25T21:52:57.419Z,35.78
2022-11-25T21:55:25.150Z,38.13
2022-11-25T21:57:52.288Z,32.53
2022-11-25T22:00:25.819Z,33.67
2022-11-25T22:02:53.737Z,38.58
2022-11-25T22:05:25.650Z,40.60
2022-11-25T22:07:54.993Z,36.33
2022-11-25T22:10:22.856Z,39.30
2022-11-25T22:12:50.785Z,38.47
2022-11-25T22:15:22.900Z,44.10
2022-11-25T22:17:55.993Z,39.05
2022-11-25T22:20:30.544Z,38.95
2022-11-25T22:22:57.709Z,43.28
2022-11-25T22:25:28.356Z,30.17
2022-11-25T22:27:55.965Z,33.70
2022-11-25T22:30:24.100Z,43.95
2022-11-25T22:33:03.362Z,41.83
2022-11-25T22:35:30.476Z,47.70
2022-11-25T22:37:57.592Z,45.10
2022-11-25T22:40:24.781Z,36.97
2022-11-25T22:42:55.045Z,41.88
2022-11-25T22:45:31.906Z,39.45
2022-11-25T22:48:03.188Z,39.40
2022-11-25T22:50:33.228Z,40.63
2022-11-25T22:53:01.551Z,46.60
2022-11-25T22:55:33.565Z,38.00
2022-11-25T22:58:01.810Z,46.17
2022-11-25T23:00:37.420Z,40.13
2022-11-25T23:03:24.419Z,38.10
2022-11-25T23:05:53.010Z,35.57
2022-11-25T23:08:21.015Z,40.83
2022-11-25T23:10:49.923Z,40.67
2022-11-25T23:13:18.646Z,52.28
2022-11-25T23:15:53.304Z,42.47
2022-11-25T23:18:39.155Z,36.97
2022-11-25T23:21:14.294Z,38.88
2022-11-25T23:23:41.386Z,45.90
2022-11-25T23:26:11.616Z,38.33
2022-11-25T23:28:41.350Z,42.37
2022-11-25T23:31:14.214Z,36.07
2022-11-25T23:33:46.485Z,36.07
2022-11-25T23:36:17.819Z,40.30
2022-11-25T23:38:50.575Z,34.38
2022-11-25T23:41:25.421Z,38.35
2022-11-25T23:43:53.295Z,30.17
2022-11-25T23:46:25.437Z,35.67
2022-11-25T23:48:57.411Z,31.55
2022-11-25T23:51:26.795Z,33.63
2022-11-25T23:53:55.671Z,28.30
2022-11-25T23:56:23.757Z,27.98
2022-11-25T23:58:50.803Z,30.03
